RKNN/KAG METAR and TAF weather

Enter ICAO airport designator
Station Type Date Time Source
RKNN METAR 2020/02/27 03:45 UTC NOAA

RKNN 270345Z 08007KT 9999 BKN040 BKN070 07/M02 A3042 RMK CIG040


Station Type Date Time Source
RKNN Decoded METAR 2020/02/27 03:45 UTC NOAA

Kangnung Ab, Korea, South (RKNN) 37-45N 128-57E 6M
Feb 26, 2020 - 10:45 PM EST / 2020.02.27 0345 UTC
Wind: from the E (080 degrees) at 8 MPH (7 KT):0
Visibility: greater than 7 mile(s):0
Sky conditions: mostly cloudy
Temperature: 44 F (7 C)
Dew Point: 28 F (-2 C)
Relative Humidity: 52%
Pressure (altimeter): 30.42 in. Hg (1030 hPa)
ob: RKNN 270345Z 08007KT 9999 BKN040 BKN070 07/M02 A3042 RMK CIG040
cycle: 4

Station Type Date Time Source
RKNN TAF 2013/10/14 20:56 UTC NOAA

TAF
AMD RKNN 142045Z 1420/1524 06006G16KT 4800 -RA BR SCT010 BKN020
BECMG 1423/1424 06006G16KT 3200 -RA BR BKN010 OVC020
BECMG 1511/1512 36010KT 4800 -RA BR BKN025 TX16/1421Z TN07/1520Z

Example: see airport list